Time;durP1;ratioP1;P1;durP2;ratioP2;P2;SDS_P1;SDS_P2;PMS_P1;PMS_P2;Temp;Humidity;BMP_temperature;BMP_pressure;BME280_temperature;BME280_humidity;BME280_pressure;Samples;Min_cycle;Max_cycle;Signal;HPM_P1;HPM_P2
2021/12/11 00:00:12;;;;;;;50.13;15.50;;;;;;;-1.28;90.70;99657.31;5059280;28;20193;-73
2021/12/11 00:02:39;;;;;;;27.83;14.57;;;;;;;-1.25;90.42;99657.22;5048865;28;20201;-72
2021/12/11 00:05:06;;;;;;;28.63;14.80;;;;;;;-1.23;90.57;99661.47;5066689;28;20207;-73
2021/12/11 00:07:34;;;;;;;34.83;14.43;;;;;;;-1.21;90.84;99667.53;5056574;28;20232;-71
2021/12/11 00:10:10;;;;;;;54.93;15.77;;;;;;;-1.18;90.91;99670.03;5056735;28;20205;-73
2021/12/11 00:12:44;;;;;;;51.77;14.90;;;;;;;-1.19;90.94;99684.00;5056219;28;20700;-73
2021/12/11 00:15:15;;;;;;;54.57;15.30;;;;;;;-1.20;91.14;99686.66;5057954;28;20230;-73
2021/12/11 00:17:41;;;;;;;58.50;12.97;;;;;;;-1.22;90.77;99681.47;5060201;28;20212;-74
2021/12/11 00:20:16;;;;;;;28.00;13.33;;;;;;;-1.25;90.63;99691.16;5056393;28;20197;-74
2021/12/11 00:22:44;;;;;;;45.20;13.57;;;;;;;-1.28;90.54;99686.91;5057538;28;20228;-74
2021/12/11 00:25:14;;;;;;;55.70;17.20;;;;;;;-1.29;90.45;99708.72;5054771;28;20205;-73
2021/12/11 00:27:45;;;;;;;37.60;15.97;;;;;;;-1.29;90.41;99710.47;5059076;28;20201;-74
2021/12/11 00:30:21;;;;;;;26.43;13.00;;;;;;;-1.30;90.56;99707.00;5074635;28;20212;-74
2021/12/11 00:32:47;;;;;;;62.83;15.40;;;;;;;-1.28;90.70;99714.78;5062085;28;20224;-74
2021/12/11 00:35:16;;;;;;;29.53;12.87;;;;;;;-1.30;90.75;99721.81;5064751;28;20225;-74
2021/12/11 00:37:43;;;;;;;37.00;13.63;;;;;;;-1.30;91.03;99721.81;5062302;28;20227;-73
2021/12/11 00:40:15;;;;;;;34.53;14.33;;;;;;;-1.30;91.21;99717.44;5058132;28;20209;-74
2021/12/11 00:42:48;;;;;;;42.00;13.63;;;;;;;-1.26;91.50;99728.66;5068058;28;20237;-74
2021/12/11 00:45:20;;;;;;;38.40;14.73;;;;;;;-1.25;90.81;99733.81;5063722;28;20233;-74
2021/12/11 00:47:49;;;;;;;30.03;13.63;;;;;;;-1.24;91.23;99737.28;5074448;28;20208;-74
2021/12/11 00:50:18;;;;;;;40.57;13.80;;;;;;;-1.24;91.14;99742.50;5063673;28;20197;-74
2021/12/11 00:52:47;;;;;;;41.57;13.63;;;;;;;-1.25;90.68;99752.09;5062345;28;20229;-73
2021/12/11 00:55:22;;;;;;;58.20;14.30;;;;;;;-1.26;90.87;99746.94;5059938;28;20257;-74
2021/12/11 00:57:50;;;;;;;32.13;13.17;;;;;;;-1.28;90.85;99754.84;5062608;28;20580;-74
2021/12/11 01:00:22;;;;;;;69.20;15.57;;;;;;;-1.30;90.78;99756.63;5055489;28;20565;-73
2021/12/11 01:02:52;;;;;;;34.20;13.60;;;;;;;-1.30;91.09;99766.22;5061436;28;20232;-74
2021/12/11 01:05:19;;;;;;;31.27;13.50;;;;;;;-1.31;90.66;99757.53;5063476;28;20196;-73
2021/12/11 01:07:46;;;;;;;28.60;12.40;;;;;;;-1.33;91.17;99761.94;5065687;28;20227;-74
2021/12/11 01:10:17;;;;;;;26.90;13.37;;;;;;;-1.38;90.76;99769.03;5058824;28;20678;-74
2021/12/11 01:12:53;;;;;;;31.63;13.23;;;;;;;-1.42;90.78;99778.72;5074939;28;20319;-74
2021/12/11 01:15:25;;;;;;;25.03;13.60;;;;;;;-1.45;90.86;99784.06;5065468;28;20585;-73
2021/12/11 01:18:03;;;;;;;20.83;11.87;;;;;;;-1.44;91.15;99784.91;5067299;28;20770;-73
2021/12/11 01:20:35;;;;;;;29.30;13.13;;;;;;;-1.42;91.10;99785.69;5062066;28;20214;-74
2021/12/11 01:23:14;;;;;;;24.03;12.93;;;;;;;-1.41;91.22;99785.66;5061362;28;20229;-73
2021/12/11 01:25:41;;;;;;;21.37;13.17;;;;;;;-1.36;90.85;99802.97;5061050;28;20208;-75
2021/12/11 01:28:09;;;;;;;28.03;13.50;;;;;;;-1.36;90.81;99792.50;5062318;28;20201;-75
2021/12/11 01:30:41;;;;;;;21.13;13.30;;;;;;;-1.35;91.39;99789.00;5058712;28;20197;-75
2021/12/11 01:33:10;;;;;;;20.80;12.57;;;;;;;-1.35;91.37;99805.53;5064399;28;20225;-75
2021/12/11 01:35:36;;;;;;;26.93;13.73;;;;;;;-1.34;90.96;99809.00;5062424;28;20228;-74
2021/12/11 01:38:07;;;;;;;26.30;15.47;;;;;;;-1.32;91.18;99815.03;5059062;28;20204;-74
2021/12/11 01:40:35;;;;;;;24.53;14.33;;;;;;;-1.33;91.38;99811.56;5068143;28;20216;-75
2021/12/11 01:43:04;;;;;;;32.60;14.43;;;;;;;-1.33;90.98;99821.16;5068472;28;20230;-72
2021/12/11 01:45:36;;;;;;;24.30;13.97;;;;;;;-1.32;91.17;99828.97;5068236;28;20204;-74
2021/12/11 01:48:04;;;;;;;21.60;13.43;;;;;;;-1.33;91.50;99829.00;5069792;28;20204;-74
2021/12/11 01:50:34;;;;;;;25.80;13.33;;;;;;;-1.34;91.14;99832.50;5066196;28;20212;-75
2021/12/11 01:53:06;;;;;;;26.97;13.40;;;;;;;-1.33;91.75;99842.06;5071215;28;20228;-75
2021/12/11 01:55:37;;;;;;;42.97;15.30;;;;;;;-1.34;91.48;99845.56;5069540;28;20237;-74
2021/12/11 01:58:09;;;;;;;21.63;13.20;;;;;;;-1.32;91.15;99855.06;5068960;28;20228;-74
2021/12/11 02:00:41;;;;;;;31.10;13.97;;;;;;;-1.30;91.33;99857.66;5085380;28;20308;-75
2021/12/11 02:03:11;;;;;;;23.77;12.80;;;;;;;-1.30;91.67;99857.66;5077025;28;20546;-75
2021/12/11 02:05:40;;;;;;;26.20;13.97;;;;;;;-1.28;91.60;99871.53;5092658;28;20203;-74
2021/12/11 02:08:10;;;;;;;29.63;14.97;;;;;;;-1.28;91.67;99875.00;5078479;28;20213;-74
2021/12/11 02:10:40;;;;;;;32.53;15.30;;;;;;;-1.27;91.75;99870.63;5090325;28;20654;-75
2021/12/11 02:13:10;;;;;;;29.10;14.80;;;;;;;-1.27;91.30;99868.88;5078031;28;20236;-75
2021/12/11 02:15:46;;;;;;;32.67;15.33;;;;;;;-1.24;92.06;99878.34;5077759;28;20241;-75
2021/12/11 02:18:18;;;;;;;24.23;13.47;;;;;;;-1.26;91.69;99885.41;5068486;28;20228;-75
2021/12/11 02:20:51;;;;;;;25.10;14.10;;;;;;;-1.28;91.58;99887.19;5086577;28;20211;-75
2021/12/11 02:23:20;;;;;;;27.57;13.43;;;;;;;-1.27;91.59;99888.91;5075382;28;20252;-75
2021/12/11 02:25:50;;;;;;;29.97;13.63;;;;;;;-1.26;91.64;99893.25;5082067;28;20200;-75
2021/12/11 02:28:21;;;;;;;21.73;12.50;;;;;;;-1.24;91.48;99899.25;5086805;28;20209;-75
2021/12/11 02:30:52;;;;;;;27.03;14.47;;;;;;;-1.24;91.92;99902.72;5081534;28;20215;-74
2021/12/11 02:33:24;;;;;;;30.53;14.20;;;;;;;-1.22;91.10;99902.69;5083265;28;20216;-74
2021/12/11 02:35:56;;;;;;;31.23;14.37;;;;;;;-1.22;91.16;99906.16;5085136;28;20764;-75
2021/12/11 02:38:29;;;;;;;24.23;13.40;;;;;;;-1.24;91.63;99910.56;5077961;28;20220;-75
2021/12/11 02:41:00;;;;;;;35.27;15.50;;;;;;;-1.24;91.39;99917.53;5086559;28;20204;-75
2021/12/11 02:43:31;;;;;;;28.93;13.70;;;;;;;-1.26;91.42;99916.75;5072546;28;20232;-74
2021/12/11 02:46:05;;;;;;;27.33;14.23;;;;;;;-1.25;91.22;99924.53;5085790;28;20578;-75
2021/12/11 02:48:34;;;;;;;24.87;13.53;;;;;;;-1.25;91.25;99924.53;5076757;28;20205;-75
2021/12/11 02:51:05;;;;;;;26.07;13.80;;;;;;;-1.24;91.46;99925.38;5079143;28;20212;-75
2021/12/11 02:53:37;;;;;;;29.37;13.97;;;;;;;-1.22;91.85;99927.06;5063245;28;20700;-75
2021/12/11 02:56:11;;;;;;;24.93;12.50;;;;;;;-1.21;91.07;99930.53;5069564;28;20235;-75
2021/12/11 02:58:42;;;;;;;20.67;12.40;;;;;;;-1.24;91.55;99936.69;5079235;28;20582;-75
2021/12/11 03:01:21;;;;;;;21.00;13.23;;;;;;;-1.24;91.53;99941.06;5066096;28;20252;-75
2021/12/11 03:03:54;;;;;;;20.00;11.60;;;;;;;-1.24;91.48;99944.53;5068358;28;20674;-75
2021/12/11 03:06:25;;;;;;;23.90;12.70;;;;;;;-1.24;91.20;99954.97;5069086;28;20647;-75
2021/12/11 03:08:56;;;;;;;32.60;14.30;;;;;;;-1.25;91.22;99962.84;5081970;28;20209;-75
2021/12/11 03:11:26;;;;;;;17.13;11.37;;;;;;;-1.28;90.98;99966.44;5082417;28;20204;-75
2021/12/11 03:13:55;;;;;;;24.47;13.27;;;;;;;-1.27;91.53;99964.66;5079523;28;20644;-74
2021/12/11 03:16:24;;;;;;;23.60;12.67;;;;;;;-1.28;91.28;99976.03;5075191;28;20227;-74
2021/12/11 03:18:52;;;;;;;15.47;11.63;;;;;;;-1.31;91.13;99983.94;5088241;28;20581;-75
2021/12/11 03:21:19;;;;;;;24.47;12.67;;;;;;;-1.32;91.48;99979.59;5062335;28;20197;-75
2021/12/11 03:23:46;;;;;;;23.70;12.13;;;;;;;-1.33;91.38;99989.19;5071158;28;20225;-75
2021/12/11 03:26:15;;;;;;;20.33;11.80;;;;;;;-1.36;91.08;99988.41;5081288;28;20217;-75
2021/12/11 03:28:42;;;;;;;25.50;12.40;;;;;;;-1.37;91.44;99991.91;5073205;28;20205;-75
2021/12/11 03:31:08;;;;;;;16.53;11.37;;;;;;;-1.39;91.44;99994.56;5078015;28;20697;-75
2021/12/11 03:33:38;;;;;;;25.83;12.20;;;;;;;-1.40;91.21;99998.06;5078509;28;20228;-75
2021/12/11 03:36:08;;;;;;;19.97;11.00;;;;;;;-1.41;91.29;100012.00;5080980;28;20232;-75
2021/12/11 03:38:35;;;;;;;23.10;12.20;;;;;;;-1.44;91.05;100018.19;5082940;28;20216;-72
2021/12/11 03:41:02;;;;;;;48.33;12.80;;;;;;;-1.46;90.80;100017.38;5080379;28;20212;-75
2021/12/11 03:43:30;;;;;;;17.00;10.30;;;;;;;-1.48;91.06;100016.56;5083487;28;20802;-75
2021/12/11 03:46:02;;;;;;;46.30;12.93;;;;;;;-1.47;91.03;100013.06;5070613;28;20208;-75
2021/12/11 03:48:34;;;;;;;37.60;12.07;;;;;;;-1.48;90.90;100018.31;5078080;28;20201;-75
2021/12/11 03:51:02;;;;;;;21.87;12.17;;;;;;;-1.49;91.00;100025.28;5073154;28;20705;-75
2021/12/11 03:53:29;;;;;;;46.13;15.57;;;;;;;-1.47;91.12;100023.50;5071325;28;20247;-75
2021/12/11 03:56:00;;;;;;;56.60;13.73;;;;;;;-1.46;91.41;100022.59;5072467;28;20659;-74
2021/12/11 03:58:27;;;;;;;36.03;13.00;;;;;;;-1.46;90.86;100030.44;5072520;28;20203;-75
2021/12/11 04:01:00;;;;;;;100.17;16.57;;;;;;;-1.47;91.40;100038.31;5077815;28;20214;-75
2021/12/11 04:03:31;;;;;;;58.83;14.67;;;;;;;-1.47;91.06;100038.31;5067972;28;20220;-74
2021/12/11 04:06:01;;;;;;;42.43;13.03;;;;;;;-1.49;91.27;100043.56;5065799;28;20219;-75
2021/12/11 04:08:33;;;;;;;51.73;14.33;;;;;;;-1.48;90.75;100041.81;5077295;28;20283;-75
2021/12/11 04:11:00;;;;;;;18.30;11.80;;;;;;;-1.48;90.71;100047.88;5075344;28;20205;-75
2021/12/11 04:13:26;;;;;;;19.27;11.00;;;;;;;-1.46;90.85;100055.69;5081086;28;20223;-75
2021/12/11 04:15:55;;;;;;;23.97;12.87;;;;;;;-1.48;91.23;100060.94;5070869;28;20240;-75
2021/12/11 04:18:22;;;;;;;43.67;13.70;;;;;;;-1.47;90.84;100065.28;5079389;28;20211;-74
2021/12/11 04:20:50;;;;;;;23.63;12.40;;;;;;;-1.48;91.05;100068.78;5068606;28;20207;-75
2021/12/11 04:23:18;;;;;;;28.73;11.93;;;;;;;-1.48;90.86;100076.63;5073887;28;20221;-75
2021/12/11 04:25:48;;;;;;;31.73;13.57;;;;;;;-1.48;90.81;100075.75;5065773;28;20296;-75
2021/12/11 04:28:16;;;;;;;27.80;11.93;;;;;;;-1.48;91.41;100084.44;5070121;28;20212;-75
2021/12/11 04:30:43;;;;;;;29.77;13.80;;;;;;;-1.48;90.77;100084.44;5069842;28;20283;-75
2021/12/11 04:33:11;;;;;;;18.63;11.67;;;;;;;-1.46;91.31;100095.72;5074798;28;21676;-75
2021/12/11 04:35:38;;;;;;;19.07;12.10;;;;;;;-1.46;91.42;100092.25;5071812;28;20202;-75
2021/12/11 04:38:09;;;;;;;23.63;13.23;;;;;;;-1.46;91.00;100087.88;5070614;28;20213;-75
2021/12/11 04:40:40;;;;;;;20.77;12.17;;;;;;;-1.45;91.10;100091.38;5064746;28;20217;-75
2021/12/11 04:43:12;;;;;;;24.03;12.67;;;;;;;-1.47;91.27;100093.16;5072857;28;20296;-74
2021/12/11 04:45:44;;;;;;;16.97;11.83;;;;;;;-1.47;91.12;100098.38;5070110;28;20241;-75
2021/12/11 04:48:21;;;;;;;18.33;12.37;;;;;;;-1.49;90.82;100106.25;5079372;28;20206;-75
2021/12/11 04:50:55;;;;;;;18.67;12.23;;;;;;;-1.49;91.36;100108.84;5072832;28;20587;-75
2021/12/11 04:53:38;;;;;;;22.10;12.53;;;;;;;-1.48;91.02;100102.72;5081281;28;20721;-75
2021/12/11 04:56:29;;;;;;;19.50;12.43;;;;;;;-1.47;90.78;100112.28;5082305;28;20224;-74
2021/12/11 04:59:18;;;;;;;18.87;11.87;;;;;;;-1.45;91.09;100120.94;5083729;28;20208;-75
2021/12/11 05:01:55;;;;;;;18.80;12.73;;;;;;;-1.43;91.25;100123.50;5076184;28;20207;-74
2021/12/11 05:04:44;;;;;;;18.17;12.10;;;;;;;-1.43;91.07;100131.34;5076844;28;20269;-75
2021/12/11 05:07:24;;;;;;;19.47;11.20;;;;;;;-1.43;90.93;100137.41;5067506;28;20205;-75
2021/12/11 05:09:57;;;;;;;18.27;11.30;;;;;;;-1.41;91.46;100143.47;5077937;28;20205;-75
2021/12/11 05:12:34;;;;;;;17.07;11.87;;;;;;;-1.40;91.08;100144.31;5072469;28;20257;-74
2021/12/11 05:15:01;;;;;;;19.37;12.30;;;;;;;-1.42;91.30;100146.97;5068967;28;20209;-75
2021/12/11 05:17:27;;;;;;;20.43;11.97;;;;;;;-1.43;91.30;100155.69;5061111;28;20343;-74
2021/12/11 05:19:56;;;;;;;19.93;12.40;;;;;;;-1.45;90.65;100154.91;5069787;28;20208;-74
2021/12/11 05:22:25;;;;;;;18.30;12.00;;;;;;;-1.48;90.80;100157.56;5077948;28;20207;-74
2021/12/11 05:24:55;;;;;;;17.43;10.90;;;;;;;-1.49;91.00;100163.69;5079064;28;20212;-73
2021/12/11 05:27:22;;;;;;;23.93;13.00;;;;;;;-1.50;91.26;100163.72;5071430;28;21109;-73
2021/12/11 05:29:48;;;;;;;18.17;12.13;;;;;;;-1.51;90.96;100162.88;5078765;28;20216;-74
2021/12/11 05:32:19;;;;;;;18.67;12.50;;;;;;;-1.50;91.38;100175.03;5067062;28;20233;-73
2021/12/11 05:34:45;;;;;;;18.80;11.67;;;;;;;-1.51;90.77;100173.31;5070703;28;20303;-74
2021/12/11 05:37:13;;;;;;;20.97;12.13;;;;;;;-1.50;90.96;100185.47;5069448;28;20228;-74
2021/12/11 05:39:41;;;;;;;16.73;11.57;;;;;;;-1.48;91.05;100186.31;5070492;28;20196;-74
2021/12/11 05:42:08;;;;;;;22.70;12.83;;;;;;;-1.45;90.98;100188.00;5068651;28;20216;-74
2021/12/11 05:44:35;;;;;;;17.13;11.53;;;;;;;-1.47;90.73;100201.09;5070781;28;20243;-73
2021/12/11 05:47:03;;;;;;;17.20;11.10;;;;;;;-1.48;91.20;100201.13;5077731;28;20211;-74
2021/12/11 05:49:30;;;;;;;18.17;12.07;;;;;;;-1.48;90.74;100204.59;5073710;28;20228;-74
2021/12/11 05:51:57;;;;;;;18.13;12.00;;;;;;;-1.46;90.91;100201.94;5078899;28;20208;-73
2021/12/11 05:54:27;;;;;;;18.53;11.57;;;;;;;-1.45;90.98;100209.75;5078346;28;20302;-74
2021/12/11 05:57:00;;;;;;;15.80;11.27;;;;;;;-1.44;90.72;100224.53;5080979;28;20318;-74
2021/12/11 05:59:27;;;;;;;17.97;11.30;;;;;;;-1.45;90.62;100227.16;5075935;28;20410;-74
2021/12/11 06:01:57;;;;;;;18.73;10.87;;;;;;;-1.48;90.83;100230.69;5068914;28;20552;-74
2021/12/11 06:04:27;;;;;;;17.23;11.63;;;;;;;-1.48;91.26;100235.94;5074825;28;20227;-74
2021/12/11 06:06:55;;;;;;;17.10;11.97;;;;;;;-1.46;91.20;100243.72;5068829;28;20571;-74
2021/12/11 06:09:25;;;;;;;19.23;12.47;;;;;;;-1.45;90.79;100245.44;5065855;28;20205;-73
2021/12/11 06:11:55;;;;;;;17.83;12.00;;;;;;;-1.45;91.10;100245.44;5060548;28;20445;-74
2021/12/11 06:14:22;;;;;;;19.90;12.80;;;;;;;-1.44;91.18;100252.41;5060030;28;20662;-74
2021/12/11 06:16:53;;;;;;;19.43;12.17;;;;;;;-1.43;90.83;100254.09;5058986;28;20233;-74
2021/12/11 06:19:21;;;;;;;19.67;13.23;;;;;;;-1.42;91.28;100250.59;5068302;28;20212;-74
2021/12/11 06:21:49;;;;;;;20.80;13.10;;;;;;;-1.39;91.31;100260.97;5069289;28;20305;-74
2021/12/11 06:24:17;;;;;;;19.33;12.40;;;;;;;-1.35;90.83;100267.00;5060206;28;20574;-74
2021/12/11 06:26:45;;;;;;;21.03;12.63;;;;;;;-1.32;91.03;100269.56;5067239;28;20208;-74
2021/12/11 06:29:12;;;;;;;19.20;11.53;;;;;;;-1.32;91.45;100270.41;5065742;28;20224;-74
2021/12/11 06:31:38;;;;;;;21.47;12.73;;;;;;;-1.29;90.97;100275.59;5064572;28;20216;-74
2021/12/11 06:34:05;;;;;;;20.83;12.10;;;;;;;-1.26;91.01;100280.75;5065473;28;20228;-74
2021/12/11 06:36:32;;;;;;;20.70;12.57;;;;;;;-1.24;91.38;100288.53;5060858;28;20209;-74
2021/12/11 06:39:06;;;;;;;31.20;16.33;;;;;;;-1.22;91.08;100305.91;5063533;28;20209;-73
2021/12/11 06:41:35;;;;;;;28.13;17.10;;;;;;;-1.22;91.33;100311.13;5066605;28;20197;-74
2021/12/11 06:44:04;;;;;;;22.33;14.37;;;;;;;-1.22;90.98;100318.09;5064339;28;20228;-73
2021/12/11 06:46:31;;;;;;;20.10;11.70;;;;;;;-1.21;90.72;100314.59;5067931;28;20213;-74
2021/12/11 06:48:57;;;;;;;20.57;13.67;;;;;;;-1.22;90.90;100323.31;5059082;28;20213;-74
2021/12/11 06:51:24;;;;;;;17.33;11.80;;;;;;;-1.23;90.89;100325.06;5070963;28;20207;-74
2021/12/11 06:53:55;;;;;;;15.30;11.23;;;;;;;-1.21;91.28;100332.88;5069932;28;20229;-74
2021/12/11 06:56:23;;;;;;;19.23;11.50;;;;;;;-1.20;91.05;100325.00;5065300;28;20213;-74
2021/12/11 06:58:51;;;;;;;15.57;11.47;;;;;;;-1.17;91.19;100329.31;5068609;28;20682;-74
2021/12/11 07:01:22;;;;;;;18.87;11.50;;;;;;;-1.17;90.78;100332.78;5069792;28;20210;-74
2021/12/11 07:03:50;;;;;;;18.93;12.30;;;;;;;-1.15;90.82;100346.69;5071874;28;20228;-73
2021/12/11 07:06:17;;;;;;;17.87;12.00;;;;;;;-1.15;90.86;100343.22;5077793;28;20208;-75
2021/12/11 07:08:44;;;;;;;15.87;11.60;;;;;;;-1.15;91.13;100338.84;5070497;28;20208;-73
2021/12/11 07:11:12;;;;;;;19.60;11.87;;;;;;;-1.15;90.87;100348.44;5071708;28;20239;-74
2021/12/11 07:13:40;;;;;;;19.73;11.33;;;;;;;-1.14;91.16;100358.00;5076682;28;20225;-74
2021/12/11 07:16:07;;;;;;;51.63;25.63;;;;;;;-1.13;90.80;100359.72;5071912;28;20209;-74
2021/12/11 07:18:35;;;;;;;50.10;26.23;;;;;;;-1.12;90.92;100375.38;5063928;28;20232;-74
2021/12/11 07:21:03;;;;;;;47.97;22.77;;;;;;;-1.12;90.88;100375.38;5067436;28;20205;-72
2021/12/11 07:23:29;;;;;;;43.77;22.57;;;;;;;-1.11;90.90;100389.31;5062824;28;20941;-74
2021/12/11 07:25:59;;;;;;;30.07;19.17;;;;;;;-1.10;91.15;100388.41;5063706;28;20211;-74
2021/12/11 07:28:26;;;;;;;34.77;18.43;;;;;;;-1.10;91.41;100398.88;5061173;28;20200;-74
2021/12/11 07:30:56;;;;;;;35.87;19.13;;;;;;;-1.08;91.20;100397.09;5058770;28;20228;-74
2021/12/11 07:33:23;;;;;;;28.33;16.47;;;;;;;-1.06;90.91;100410.97;5067702;28;20224;-74
2021/12/11 07:35:52;;;;;;;28.17;17.13;;;;;;;-1.05;91.32;100407.47;5059238;28;20219;-74
2021/12/11 07:38:19;;;;;;;25.60;15.03;;;;;;;-1.06;90.98;100411.81;5055776;28;20218;-73
2021/12/11 07:40:50;;;;;;;21.00;14.27;;;;;;;-1.05;90.69;100408.31;5061908;28;20212;-74
2021/12/11 07:43:19;;;;;;;18.87;12.83;;;;;;;-1.03;91.15;100415.28;5055025;28;20232;-74
2021/12/11 07:45:46;;;;;;;19.87;13.27;;;;;;;-1.03;90.82;100421.38;5064430;28;20389;-74
2021/12/11 07:48:13;;;;;;;21.13;13.17;;;;;;;-1.03;91.20;100428.34;5069317;28;20201;-74
2021/12/11 07:50:41;;;;;;;18.30;12.30;;;;;;;-1.04;90.87;100430.09;5065131;28;20205;-74
2021/12/11 07:53:10;;;;;;;17.90;11.60;;;;;;;-1.05;90.76;100434.47;5069197;28;20239;-74
2021/12/11 07:55:37;;;;;;;16.50;11.57;;;;;;;-1.05;90.85;100441.44;5067529;28;20201;-74
2021/12/11 07:58:07;;;;;;;17.83;11.27;;;;;;;-1.03;91.31;100441.41;5068998;28;20217;-74
2021/12/11 08:00:36;;;;;;;15.80;10.37;;;;;;;-1.02;90.74;100440.53;5061758;28;20209;-74
2021/12/11 08:03:05;;;;;;;17.80;11.30;;;;;;;-1.01;90.89;100443.09;5053521;28;20721;-74
2021/12/11 08:05:32;;;;;;;17.17;11.70;;;;;;;-0.99;91.28;100448.31;5056890;28;20197;-74
2021/12/11 08:08:01;;;;;;;16.83;11.30;;;;;;;-0.97;90.88;100457.84;5060369;28;20205;-74
2021/12/11 08:10:31;;;;;;;17.33;10.90;;;;;;;-0.96;91.15;100446.50;5058581;28;20224;-73
2021/12/11 08:12:59;;;;;;;16.57;10.53;;;;;;;-0.94;91.36;100452.56;5060204;28;20232;-73
2021/12/11 08:15:27;;;;;;;17.43;11.70;;;;;;;-0.94;90.65;100455.19;5059784;28;20208;-74
2021/12/11 08:17:54;;;;;;;16.40;11.60;;;;;;;-0.92;90.80;100463.84;5061755;28;20216;-74
2021/12/11 08:20:23;;;;;;;15.27;10.90;;;;;;;-0.92;90.94;100471.69;5059491;28;20202;-74
2021/12/11 08:22:50;;;;;;;18.63;11.77;;;;;;;-0.89;90.95;100474.22;5058717;28;20228;-74
2021/12/11 08:25:17;;;;;;;14.43;10.13;;;;;;;-0.90;90.69;100477.75;5059928;28;20589;-74
2021/12/11 08:27:45;;;;;;;16.77;11.53;;;;;;;-0.92;90.90;100476.94;5060275;28;20197;-73
2021/12/11 08:30:12;;;;;;;17.17;11.70;;;;;;;-0.92;90.81;100484.78;5067711;28;20203;-74
2021/12/11 08:32:39;;;;;;;20.87;13.07;;;;;;;-0.93;90.88;100484.78;5058977;28;20216;-74
2021/12/11 08:35:09;;;;;;;23.20;13.63;;;;;;;-0.94;90.89;100491.78;5064001;28;20679;-73
2021/12/11 08:37:37;;;;;;;22.20;13.53;;;;;;;-0.91;90.87;100502.19;5055426;28;20229;-74
2021/12/11 08:40:05;;;;;;;19.90;12.77;;;;;;;-0.92;90.88;100507.44;5062014;28;20201;-73
2021/12/11 08:42:32;;;;;;;21.03;13.33;;;;;;;-0.93;91.06;100506.56;5061627;28;20201;-74
2021/12/11 08:45:05;;;;;;;19.00;12.67;;;;;;;-0.95;90.63;100513.56;5061645;28;20592;-74
2021/12/11 08:47:34;;;;;;;17.63;12.17;;;;;;;-0.96;90.58;100517.09;5062704;28;20572;-74
2021/12/11 08:50:00;;;;;;;18.97;12.87;;;;;;;-0.96;90.80;100519.69;5057154;28;20288;-74
2021/12/11 08:52:31;;;;;;;16.63;11.77;;;;;;;-0.95;90.65;100528.41;5057299;28;20212;-74
2021/12/11 08:54:58;;;;;;;19.90;12.77;;;;;;;-0.95;90.61;100537.09;5079651;28;20297;-73
2021/12/11 08:57:31;;;;;;;17.40;12.23;;;;;;;-0.95;90.43;100534.50;5079002;28;20224;-74
2021/12/11 09:00:02;;;;;;;19.23;12.27;;;;;;;-0.94;90.45;100540.59;5065566;28;20219;-74
2021/12/11 09:02:37;;;;;;;17.93;12.23;;;;;;;-0.93;90.67;100553.63;5056671;28;20209;-74
2021/12/11 09:05:10;;;;;;;22.13;13.57;;;;;;;-0.90;90.82;100558.81;5065256;28;20209;-73
2021/12/11 09:07:40;;;;;;;19.70;12.97;;;;;;;-0.88;90.53;100559.59;5061805;28;20207;-75
2021/12/11 09:10:11;;;;;;;18.87;12.53;;;;;;;-0.85;90.66;100562.19;5061792;28;20208;-75
2021/12/11 09:12:42;;;;;;;24.37;13.33;;;;;;;-0.81;90.67;100563.00;5059861;28;20212;-75
2021/12/11 09:15:16;;;;;;;17.80;12.20;;;;;;;-0.79;90.68;100561.22;5066222;28;20675;-75
2021/12/11 09:17:49;;;;;;;20.73;13.63;;;;;;;-0.75;90.68;100563.75;5074527;28;20225;-75
2021/12/11 09:20:24;;;;;;;23.83;14.50;;;;;;;-0.72;90.82;100565.44;5064824;28;20217;-75
2021/12/11 09:22:55;;;;;;;19.37;13.13;;;;;;;-0.67;90.67;100568.81;5067423;28;20220;-75
2021/12/11 09:25:25;;;;;;;20.83;13.27;;;;;;;-0.63;90.75;100574.84;5068871;28;20315;-74
2021/12/11 09:27:55;;;;;;;25.20;14.57;;;;;;;-0.60;91.18;100585.28;5068229;28;20205;-75
2021/12/11 09:30:27;;;;;;;20.43;13.03;;;;;;;-0.50;91.28;100584.19;5069999;28;20209;-75
2021/12/11 09:32:58;;;;;;;22.30;13.50;;;;;;;-0.43;91.25;100591.91;5063537;28;20220;-75
2021/12/11 09:35:29;;;;;;;22.80;13.13;;;;;;;-0.35;91.42;100594.34;5058078;28;20202;-75
2021/12/11 09:38:00;;;;;;;21.47;12.93;;;;;;;-0.29;91.54;100594.25;5057938;28;20232;-75
2021/12/11 09:40:50;;;;;;;25.83;13.20;;;;;;;-0.26;91.42;100596.81;5062201;28;20295;-75
2021/12/11 09:43:44;;;;;;;23.10;14.63;;;;;;;-0.22;91.42;100590.63;5050489;28;20229;-76
2021/12/11 09:46:14;;;;;;;22.70;14.10;;;;;;;-0.19;91.23;100601.03;5055063;28;20202;-76
2021/12/11 09:48:42;;;;;;;19.43;13.43;;;;;;;-0.15;91.50;100607.03;5054741;28;20446;-75
2021/12/11 09:51:13;;;;;;;23.90;14.27;;;;;;;-0.11;91.37;100606.97;5056809;28;20206;-75
2021/12/11 09:53:43;;;;;;;18.47;13.93;;;;;;;-0.05;91.59;100612.06;5057916;28;20228;-75
2021/12/11 09:56:20;;;;;;;25.83;14.50;;;;;;;0.04;91.70;100610.16;5054006;28;20205;-75
2021/12/11 09:58:48;;;;;;;27.03;15.40;;;;;;;0.12;91.88;100611.72;5060059;28;20731;-74
2021/12/11 10:01:19;;;;;;;23.40;15.77;;;;;;;0.19;91.82;100605.44;5066043;28;20205;-73
2021/12/11 10:03:50;;;;;;;21.87;14.60;;;;;;;0.27;92.32;100605.28;5063936;28;20231;-74
2021/12/11 10:06:41;;;;;;;28.40;15.67;;;;;;;0.35;92.22;100606.00;5063415;28;20675;-74
2021/12/11 10:09:18;;;;;;;23.30;14.67;;;;;;;0.43;92.18;100622.38;5062377;28;20200;-74
2021/12/11 10:11:49;;;;;;;26.53;14.93;;;;;;;0.48;92.55;100615.28;5060709;28;20567;-74
2021/12/11 10:14:25;;;;;;;22.53;14.43;;;;;;;0.56;92.27;100628.19;5061821;28;20757;-74
2021/12/11 10:16:57;;;;;;;21.63;13.10;;;;;;;0.61;92.37;100623.72;5063959;28;20204;-74
2021/12/11 10:19:29;;;;;;;25.73;13.83;;;;;;;0.67;92.41;100620.97;5061511;28;20724;-74
2021/12/11 10:22:01;;;;;;;19.47;13.37;;;;;;;0.74;92.57;100626.91;5064575;28;20209;-74
2021/12/11 10:24:31;;;;;;;18.87;12.90;;;;;;;0.79;92.19;100627.69;5063112;28;20231;-74
2021/12/11 10:27:00;;;;;;;21.60;13.50;;;;;;;0.83;92.36;100632.81;5061272;28;20201;-73
2021/12/11 10:29:28;;;;;;;19.60;12.97;;;;;;;0.87;92.10;100639.72;5060208;28;20193;-75
2021/12/11 10:31:57;;;;;;;24.20;14.97;;;;;;;0.91;91.89;100640.47;5064748;28;20208;-73
2021/12/11 10:34:26;;;;;;;20.80;14.20;;;;;;;0.95;92.20;100648.25;5065233;28;20223;-73
2021/12/11 10:36:59;;;;;;;19.93;14.17;;;;;;;1.00;92.01;100646.38;5063091;28;20213;-73
2021/12/11 10:39:27;;;;;;;15.80;12.13;;;;;;;1.05;91.77;100648.91;5060309;28;20729;-74
2021/12/11 10:41:53;;;;;;;24.63;14.73;;;;;;;1.10;91.41;100646.13;5057037;28;20584;-73
2021/12/11 10:44:24;;;;;;;22.13;14.73;;;;;;;1.14;91.10;100653.91;5066576;22;20225;-83
2021/12/11 10:46:59;;;;;;;27.57;16.37;;;;;;;1.17;91.61;100659.06;5076388;28;20674;-83
2021/12/11 10:49:30;;;;;;;21.47;14.97;;;;;;;1.20;91.32;100659.00;5075470;28;20692;-84
2021/12/11 10:52:13;;;;;;;22.77;13.40;;;;;;;1.24;91.61;100667.66;5077595;28;20207;-83
2021/12/11 10:54:41;;;;;;;18.47;11.80;;;;;;;1.28;91.47;100672.78;5073044;28;20205;-81
2021/12/11 10:57:08;;;;;;;18.17;12.93;;;;;;;1.30;91.09;100673.59;5077935;28;20212;-80
2021/12/11 10:59:40;;;;;;;21.50;12.27;;;;;;;1.36;90.98;100678.72;5074458;28;20289;-80
2021/12/11 11:02:10;;;;;;;16.30;10.47;;;;;;;1.40;90.58;100679.50;5073840;28;20193;-81
2021/12/11 11:04:43;;;;;;;20.37;11.87;;;;;;;1.41;90.29;100683.84;5071902;28;20215;-81
2021/12/11 11:07:10;;;;;;;18.53;12.50;;;;;;;1.44;90.52;100688.13;5073825;28;20629;-82
2021/12/11 11:09:41;;;;;;;18.60;12.60;;;;;;;1.47;90.31;100681.03;5072141;28;20220;-81
2021/12/11 11:12:13;;;;;;;20.10;12.77;;;;;;;1.52;89.88;100688.81;5072145;28;20197;-82
2021/12/11 11:14:40;;;;;;;18.43;12.10;;;;;;;1.54;90.34;100695.75;5078239;28;20196;-81
2021/12/11 11:17:13;;;;;;;19.23;12.10;;;;;;;1.57;89.34;100689.56;5074936;28;20205;-82
2021/12/11 11:19:41;;;;;;;17.60;11.70;;;;;;;1.61;89.27;100699.09;5079106;28;20233;-81
2021/12/11 11:22:14;;;;;;;15.63;11.00;;;;;;;1.63;89.50;100706.00;5076890;28;20205;-81
2021/12/11 11:24:44;;;;;;;18.47;11.20;;;;;;;1.67;88.66;100709.41;5077476;28;20281;-80